PAC971K RPLL-VTSP
Flight info
| Callsign | PAC971K |
|---|---|
| Flight time | 3h 30m |
| Altitude | 38000 |
| Route | BETEL2R BETEL M765 EXOLO/N0490F340 M765 PANDI/K0904F400 M765 BITOD/N0486F400 M765 VKB A334 HTY W14 EPGOT EPGOT1D |
| Aircraft | B748/H-SDE3FGHIM1M2RWXY/LB1 |
Departure
| Time | 2026-05-01 08:57 |
|---|---|
| Airport | Ninoy Aquino International Airport (RPLL) |
Arrival
| Time | 2026-05-01 12:27 |
|---|---|
| Airport | Phuket International Airport (VTSP) |
| Time | Latitude | Longitude | Altitude | Speed | Heading |
|---|---|---|---|---|---|
| 2026-05-01 08:43 | 14.50629 | 121.00974 | 79 ft | 0 kts | 329° |
| 2026-05-01 08:47 | 14.50628 | 121.00975 | 79 ft | 2 kts | 329° |
| 2026-05-01 08:47 | 14.50614 | 121.00984 | 67 ft | 2 kts | 329° |
| 2026-05-01 08:47 | 14.50600 | 121.00992 | 69 ft | 2 kts | 329° |
| 2026-05-01 08:48 | 14.50586 | 121.01000 | 67 ft | 2 kts | 320° |
| 2026-05-01 08:48 | 14.50580 | 121.01012 | 67 ft | 0 kts | 245° |
| 2026-05-01 08:52 | 14.50578 | 121.01009 | 67 ft | 1 kts | 242° |
| 2026-05-01 08:52 | 14.50561 | 121.00978 | 67 ft | 8 kts | 241° |
| 2026-05-01 08:52 | 14.50522 | 121.00906 | 73 ft | 15 kts | 240° |
| 2026-05-01 08:52 | 14.50461 | 121.00795 | 74 ft | 21 kts | 240° |
| 2026-05-01 08:53 | 14.50378 | 121.00651 | 67 ft | 26 kts | 238° |
| 2026-05-01 08:53 | 14.50279 | 121.00478 | 67 ft | 30 kts | 242° |
| 2026-05-01 08:53 | 14.50180 | 121.00352 | 73 ft | 14 kts | 196° |
| 2026-05-01 08:53 | 14.50125 | 121.00317 | 73 ft | 10 kts | 227° |
| 2026-05-01 08:54 | 14.50071 | 121.00244 | 67 ft | 16 kts | 238° |
| 2026-05-01 08:54 | 14.50002 | 121.00132 | 67 ft | 20 kts | 240° |
| 2026-05-01 08:54 | 14.49929 | 121.00003 | 85 ft | 19 kts | 224° |
| 2026-05-01 08:54 | 14.49845 | 121.00001 | 83 ft | 11 kts | 139° |
| 2026-05-01 08:55 | 14.49830 | 121.00057 | 80 ft | 8 kts | 89° |
| 2026-05-01 08:55 | 14.49852 | 121.00127 | 85 ft | 12 kts | 60° |
| 2026-05-01 08:55 | 14.49884 | 121.00184 | 69 ft | 0 kts | 60° |
| 2026-05-01 08:56 | 14.49887 | 121.00189 | 69 ft | 7 kts | 60° |
| 2026-05-01 08:56 | 14.50095 | 121.00569 | 70 ft | 116 kts | 59° |
| 2026-05-01 08:56 | 14.50650 | 121.01570 | 177 ft | 194 kts | 60° |
| 2026-05-01 08:57 | 14.51146 | 121.02834 | 1373 ft | 179 kts | 77° |
| 2026-05-01 08:57 | 14.51038 | 121.04119 | 1883 ft | 196 kts | 110° |
| 2026-05-01 08:57 | 14.50755 | 121.05561 | 2120 ft | 219 kts | 84° |
| 2026-05-01 08:57 | 14.51339 | 121.07066 | 2454 ft | 238 kts | 51° |
| 2026-05-01 08:58 | 14.52648 | 121.08162 | 3001 ft | 249 kts | 34° |
| 2026-05-01 08:58 | 14.54072 | 121.09181 | 3888 ft | 255 kts | 39° |
| 2026-05-01 08:58 | 14.55407 | 121.10394 | 4847 ft | 256 kts | 48° |
| 2026-05-01 08:58 | 14.56518 | 121.11830 | 5650 ft | 257 kts | 52° |
| 2026-05-01 08:59 | 14.57879 | 121.13022 | 6394 ft | 262 kts | 26° |
| 2026-05-01 08:59 | 14.59670 | 121.13418 | 7146 ft | 268 kts | 5° |
| 2026-05-01 08:59 | 14.61544 | 121.13478 | 7913 ft | 271 kts | 2° |
| 2026-05-01 08:59 | 14.63441 | 121.13469 | 8613 ft | 274 kts | 1° |
| 2026-05-01 09:00 | 14.65361 | 121.13462 | 9272 ft | 277 kts | 2° |
| 2026-05-01 09:00 | 14.67278 | 121.13170 | 9922 ft | 284 kts | 339° |
| 2026-05-01 09:00 | 14.68918 | 121.12010 | 10543 ft | 291 kts | 312° |
| 2026-05-01 09:00 | 14.69916 | 121.10182 | 11167 ft | 297 kts | 285° |
| 2026-05-01 09:01 | 14.70138 | 121.08056 | 11793 ft | 301 kts | 270° |
| 2026-05-01 09:01 | 14.70090 | 121.05884 | 12440 ft | 303 kts | 268° |
| 2026-05-01 09:01 | 14.70016 | 121.03722 | 13119 ft | 306 kts | 269° |
| 2026-05-01 09:01 | 14.69997 | 121.01508 | 13775 ft | 310 kts | 270° |
| 2026-05-01 09:02 | 14.69828 | 120.99289 | 14352 ft | 313 kts | 254° |
| 2026-05-01 09:02 | 14.69140 | 120.97122 | 14723 ft | 323 kts | 248° |
| 2026-05-01 09:02 | 14.68284 | 120.94918 | 14914 ft | 338 kts | 247° |
| 2026-05-01 09:02 | 14.67405 | 120.92603 | 15015 ft | 355 kts | 249° |
| 2026-05-01 09:03 | 14.66544 | 120.90150 | 15067 ft | 372 kts | 250° |
| 2026-05-01 09:03 | 14.65652 | 120.87580 | 15138 ft | 387 kts | 249° |
| 2026-05-01 09:03 | 14.64703 | 120.84949 | 15402 ft | 394 kts | 248° |
| 2026-05-01 09:03 | 14.63649 | 120.82320 | 15762 ft | 398 kts | 243° |
| 2026-05-01 09:04 | 14.62268 | 120.79839 | 16168 ft | 400 kts | 233° |
| 2026-05-01 09:04 | 14.60501 | 120.77602 | 16645 ft | 402 kts | 227° |
| 2026-05-01 09:04 | 14.58606 | 120.75466 | 17097 ft | 405 kts | 227° |
| 2026-05-01 09:04 | 14.56830 | 120.73196 | 17508 ft | 408 kts | 235° |
| 2026-05-01 09:05 | 14.55456 | 120.70669 | 17882 ft | 411 kts | 244° |
| 2026-05-01 09:05 | 14.54411 | 120.67921 | 18254 ft | 413 kts | 249° |
| 2026-05-01 09:05 | 14.53474 | 120.65117 | 18594 ft | 414 kts | 249° |
| 2026-05-01 09:05 | 14.52417 | 120.62352 | 18917 ft | 414 kts | 244° |
| 2026-05-01 09:06 | 14.50981 | 120.59768 | 19232 ft | 414 kts | 232° |
| 2026-05-01 09:06 | 14.48995 | 120.57625 | 19536 ft | 415 kts | 219° |
| 2026-05-01 09:06 | 14.46708 | 120.55789 | 19813 ft | 417 kts | 216° |
| 2026-05-01 09:06 | 14.44389 | 120.53980 | 20103 ft | 419 kts | 217° |
| 2026-05-01 09:07 | 14.42172 | 120.52060 | 20370 ft | 422 kts | 221° |
| 2026-05-01 09:07 | 14.40131 | 120.49873 | 20632 ft | 425 kts | 231° |
| 2026-05-01 09:07 | 14.38473 | 120.47340 | 20882 ft | 427 kts | 239° |
| 2026-05-01 09:07 | 14.37052 | 120.44646 | 21130 ft | 428 kts | 240° |
| 2026-05-01 09:08 | 14.35460 | 120.42057 | 21379 ft | 428 kts | 232° |
| 2026-05-01 09:08 | 14.33552 | 120.39694 | 21605 ft | 430 kts | 227° |
| 2026-05-01 09:08 | 14.31559 | 120.37390 | 21849 ft | 430 kts | 228° |
| 2026-05-01 09:08 | 14.29684 | 120.34980 | 22076 ft | 431 kts | 234° |
| 2026-05-01 09:09 | 14.28018 | 120.32409 | 22298 ft | 432 kts | 236° |
| 2026-05-01 09:09 | 14.26300 | 120.29860 | 22492 ft | 433 kts | 232° |
| 2026-05-01 09:09 | 14.24460 | 120.27401 | 22695 ft | 434 kts | 231° |
| 2026-05-01 09:09 | 14.22630 | 120.24916 | 22900 ft | 435 kts | 233° |
| 2026-05-01 09:10 | 14.20865 | 120.22383 | 23080 ft | 436 kts | 234° |
| 2026-05-01 09:10 | 14.19095 | 120.19840 | 23240 ft | 437 kts | 233° |
| 2026-05-01 09:10 | 14.17462 | 120.17200 | 23448 ft | 438 kts | 244° |
| 2026-05-01 09:10 | 14.16352 | 120.14278 | 23582 ft | 439 kts | 250° |
| 2026-05-01 09:11 | 14.15269 | 120.11339 | 23711 ft | 439 kts | 246° |
| 2026-05-01 09:11 | 14.13999 | 120.08469 | 23837 ft | 441 kts | 244° |
| 2026-05-01 09:11 | 14.12756 | 120.05572 | 23980 ft | 442 kts | 247° |
| 2026-05-01 09:11 | 14.11656 | 120.02662 | 24114 ft | 442 kts | 249° |
| 2026-05-01 09:12 | 14.10548 | 119.99706 | 24249 ft | 442 kts | 248° |
| 2026-05-01 09:12 | 14.09355 | 119.96741 | 24376 ft | 443 kts | 246° |
| 2026-05-01 09:12 | 14.08176 | 119.93854 | 24508 ft | 443 kts | 247° |
| 2026-05-01 09:12 | 14.07014 | 119.90913 | 24635 ft | 443 kts | 248° |
| 2026-05-01 09:13 | 14.05865 | 119.87966 | 24758 ft | 443 kts | 247° |
| 2026-05-01 09:13 | 14.04699 | 119.85024 | 24878 ft | 444 kts | 247° |
| 2026-05-01 09:13 | 14.03524 | 119.82088 | 25006 ft | 444 kts | 247° |
| 2026-05-01 09:13 | 14.02352 | 119.79143 | 25114 ft | 444 kts | 247° |
| 2026-05-01 09:14 | 14.01185 | 119.76192 | 25246 ft | 444 kts | 247° |
| 2026-05-01 09:14 | 14.00020 | 119.73257 | 25352 ft | 444 kts | 247° |
| 2026-05-01 09:14 | 13.98845 | 119.70309 | 25480 ft | 444 kts | 247° |
| 2026-05-01 09:14 | 13.97674 | 119.67367 | 25577 ft | 445 kts | 248° |
| 2026-05-01 09:15 | 13.96500 | 119.64412 | 25667 ft | 446 kts | 247° |
| 2026-05-01 09:15 | 13.95323 | 119.61451 | 25767 ft | 447 kts | 247° |
| 2026-05-01 09:15 | 13.94142 | 119.58489 | 25876 ft | 448 kts | 248° |
| 2026-05-01 09:15 | 13.92959 | 119.55521 | 25967 ft | 448 kts | 248° |
| 2026-05-01 09:16 | 13.91779 | 119.52556 | 26073 ft | 448 kts | 247° |
| 2026-05-01 09:16 | 13.90593 | 119.49583 | 26207 ft | 448 kts | 248° |
| 2026-05-01 09:16 | 13.89408 | 119.46614 | 26304 ft | 449 kts | 247° |
| 2026-05-01 09:17 | 13.87052 | 119.40707 | 26545 ft | 449 kts | 247° |
| 2026-05-01 09:17 | 13.85857 | 119.37716 | 26648 ft | 450 kts | 247° |
| 2026-05-01 09:17 | 13.83475 | 119.31754 | 26882 ft | 450 kts | 248° |
| 2026-05-01 09:18 | 13.82285 | 119.28777 | 26990 ft | 451 kts | 248° |
| 2026-05-01 09:18 | 13.79894 | 119.22801 | 27219 ft | 452 kts | 248° |
| 2026-05-01 09:19 | 13.77498 | 119.16818 | 27447 ft | 453 kts | 248° |
| 2026-05-01 09:19 | 13.76296 | 119.13819 | 27551 ft | 454 kts | 248° |
| 2026-05-01 09:19 | 13.75092 | 119.10813 | 27662 ft | 454 kts | 248° |
| 2026-05-01 09:20 | 13.72680 | 119.04799 | 27894 ft | 455 kts | 248° |
| 2026-05-01 09:20 | 13.70258 | 118.98762 | 28106 ft | 457 kts | 248° |
| 2026-05-01 09:21 | 13.67845 | 118.92758 | 28360 ft | 458 kts | 248° |
| 2026-05-01 09:21 | 13.66628 | 118.89729 | 28499 ft | 459 kts | 248° |
| 2026-05-01 09:21 | 13.64187 | 118.83660 | 28772 ft | 459 kts | 248° |
| 2026-05-01 09:22 | 13.62152 | 118.78602 | 28983 ft | 461 kts | 248° |
| 2026-05-01 09:22 | 13.59695 | 118.72501 | 29268 ft | 463 kts | 248° |
| 2026-05-01 09:23 | 13.58461 | 118.69441 | 29402 ft | 464 kts | 248° |
| 2026-05-01 09:23 | 13.55987 | 118.63305 | 29718 ft | 465 kts | 248° |
| 2026-05-01 09:24 | 13.53506 | 118.57161 | 30013 ft | 467 kts | 248° |
| 2026-05-01 09:24 | 13.52261 | 118.54077 | 30147 ft | 467 kts | 248° |
| 2026-05-01 09:24 | 13.49764 | 118.47899 | 30425 ft | 469 kts | 248° |
| 2026-05-01 09:25 | 13.47253 | 118.41690 | 30704 ft | 471 kts | 248° |
| 2026-05-01 09:25 | 13.44733 | 118.35464 | 30981 ft | 472 kts | 247° |
| 2026-05-01 09:26 | 13.43471 | 118.32349 | 31125 ft | 473 kts | 247° |
| 2026-05-01 09:26 | 13.40941 | 118.26107 | 31414 ft | 474 kts | 247° |
| 2026-05-01 09:26 | 13.39690 | 118.23021 | 31553 ft | 475 kts | 247° |
| 2026-05-01 09:27 | 13.37146 | 118.16754 | 31853 ft | 476 kts | 247° |
| 2026-05-01 09:27 | 13.35872 | 118.13617 | 32059 ft | 475 kts | 247° |
| 2026-05-01 09:27 | 13.34600 | 118.10484 | 32269 ft | 475 kts | 247° |
| 2026-05-01 09:28 | 13.33329 | 118.07358 | 32476 ft | 474 kts | 247° |
| 2026-05-01 09:28 | 13.32061 | 118.04239 | 32721 ft | 473 kts | 247° |
| 2026-05-01 09:28 | 13.30793 | 118.01121 | 32973 ft | 472 kts | 247° |
| 2026-05-01 09:28 | 13.29529 | 117.98015 | 33226 ft | 471 kts | 247° |
| 2026-05-01 09:29 | 13.27006 | 117.91814 | 33752 ft | 469 kts | 247° |
| 2026-05-01 09:29 | 13.25747 | 117.88722 | 33859 ft | 471 kts | 246° |
| 2026-05-01 09:30 | 13.23199 | 117.82474 | 33867 ft | 475 kts | 246° |
| 2026-05-01 09:30 | 13.19360 | 117.73063 | 33869 ft | 477 kts | 246° |
| 2026-05-01 09:31 | 13.16794 | 117.66780 | 33871 ft | 477 kts | 246° |
| 2026-05-01 09:32 | 13.12939 | 117.57352 | 33871 ft | 478 kts | 246° |
| 2026-05-01 09:32 | 13.09097 | 117.47964 | 33872 ft | 478 kts | 246° |
| 2026-05-01 09:33 | 13.06522 | 117.41679 | 33867 ft | 477 kts | 246° |
| 2026-05-01 09:34 | 13.02653 | 117.32247 | 33869 ft | 479 kts | 246° |
| 2026-05-01 09:34 | 12.98771 | 117.22793 | 33870 ft | 479 kts | 246° |
| 2026-05-01 09:35 | 12.94881 | 117.13329 | 33871 ft | 480 kts | 246° |
| 2026-05-01 09:36 | 12.92299 | 117.07055 | 33872 ft | 481 kts | 246° |
| 2026-05-01 09:36 | 12.89700 | 117.00744 | 33872 ft | 480 kts | 246° |
| 2026-05-01 09:37 | 12.87097 | 116.94429 | 33869 ft | 480 kts | 246° |
| 2026-05-01 09:37 | 12.83189 | 116.84961 | 33868 ft | 481 kts | 246° |
| 2026-05-01 09:38 | 12.79274 | 116.75480 | 33869 ft | 482 kts | 246° |
| 2026-05-01 09:39 | 12.75354 | 116.66000 | 33866 ft | 482 kts | 246° |
| 2026-05-01 09:39 | 12.72734 | 116.59675 | 33867 ft | 483 kts | 246° |
| 2026-05-01 09:40 | 12.71444 | 116.56565 | 34234 ft | 476 kts | 246° |
| 2026-05-01 09:40 | 12.68881 | 116.50377 | 34910 ft | 469 kts | 246° |
| 2026-05-01 09:40 | 12.67610 | 116.47311 | 35167 ft | 467 kts | 247° |
| 2026-05-01 09:41 | 12.66340 | 116.44252 | 35405 ft | 466 kts | 247° |
| 2026-05-01 09:41 | 12.63813 | 116.38165 | 35803 ft | 464 kts | 247° |
| 2026-05-01 09:41 | 12.62549 | 116.35120 | 35987 ft | 464 kts | 247° |
| 2026-05-01 09:42 | 12.61287 | 116.32082 | 36171 ft | 463 kts | 247° |
| 2026-05-01 09:42 | 12.60025 | 116.29048 | 36334 ft | 463 kts | 247° |
| 2026-05-01 09:42 | 12.57512 | 116.23008 | 36623 ft | 463 kts | 248° |
| 2026-05-01 09:43 | 12.54991 | 116.16946 | 36888 ft | 463 kts | 248° |
| 2026-05-01 09:43 | 12.53724 | 116.13906 | 37014 ft | 463 kts | 248° |
| 2026-05-01 09:43 | 12.52459 | 116.10870 | 37150 ft | 463 kts | 248° |
| 2026-05-01 09:44 | 12.49935 | 116.04811 | 37377 ft | 463 kts | 248° |
| 2026-05-01 09:44 | 12.48667 | 116.01772 | 37500 ft | 463 kts | 248° |
| 2026-05-01 09:44 | 12.47401 | 115.98739 | 37617 ft | 462 kts | 248° |
| 2026-05-01 09:45 | 12.46140 | 115.95717 | 37726 ft | 462 kts | 248° |
| 2026-05-01 09:45 | 12.43611 | 115.89660 | 37909 ft | 462 kts | 248° |
| 2026-05-01 09:45 | 12.42348 | 115.86637 | 37992 ft | 462 kts | 248° |
| 2026-05-01 09:46 | 12.39832 | 115.80620 | 38152 ft | 462 kts | 248° |
| 2026-05-01 09:46 | 12.37302 | 115.74569 | 38313 ft | 462 kts | 248° |
| 2026-05-01 09:47 | 12.34770 | 115.68523 | 38458 ft | 462 kts | 248° |
| 2026-05-01 09:47 | 12.32239 | 115.62481 | 38578 ft | 462 kts | 248° |
| 2026-05-01 09:48 | 12.29704 | 115.56434 | 38666 ft | 462 kts | 248° |
| 2026-05-01 09:48 | 12.27169 | 115.50391 | 38747 ft | 462 kts | 248° |
| 2026-05-01 09:49 | 12.24636 | 115.44357 | 38838 ft | 462 kts | 248° |
| 2026-05-01 09:49 | 12.22113 | 115.38354 | 38911 ft | 462 kts | 248° |
| 2026-05-01 09:50 | 12.19580 | 115.32328 | 38993 ft | 461 kts | 249° |
| 2026-05-01 09:50 | 12.17041 | 115.26293 | 39050 ft | 462 kts | 248° |
| 2026-05-01 09:51 | 12.14497 | 115.20251 | 39098 ft | 462 kts | 249° |
| 2026-05-01 09:51 | 12.11956 | 115.14219 | 39164 ft | 462 kts | 249° |
| 2026-05-01 09:52 | 12.09416 | 115.08196 | 39205 ft | 462 kts | 248° |
| 2026-05-01 09:52 | 12.06891 | 115.02209 | 39258 ft | 461 kts | 248° |
| 2026-05-01 09:53 | 12.04350 | 114.96192 | 39312 ft | 461 kts | 249° |
| 2026-05-01 09:53 | 12.01804 | 114.90166 | 39343 ft | 461 kts | 248° |
| 2026-05-01 09:54 | 11.99258 | 114.84143 | 39397 ft | 461 kts | 248° |
| 2026-05-01 09:54 | 11.96710 | 114.78122 | 39434 ft | 461 kts | 248° |
| 2026-05-01 09:55 | 11.94164 | 114.72107 | 39459 ft | 461 kts | 248° |
| 2026-05-01 09:55 | 11.91614 | 114.66089 | 39478 ft | 461 kts | 248° |
| 2026-05-01 09:56 | 11.89078 | 114.60106 | 39502 ft | 461 kts | 248° |
| 2026-05-01 09:56 | 11.86526 | 114.54092 | 39523 ft | 461 kts | 248° |
| 2026-05-01 09:57 | 11.83975 | 114.48083 | 39555 ft | 461 kts | 248° |
| 2026-05-01 09:57 | 11.81420 | 114.42069 | 39576 ft | 461 kts | 248° |
| 2026-05-01 09:58 | 11.78882 | 114.36098 | 39587 ft | 461 kts | 248° |
| 2026-05-01 09:58 | 11.76325 | 114.30087 | 39601 ft | 462 kts | 248° |
| 2026-05-01 09:59 | 11.73764 | 114.24073 | 39617 ft | 462 kts | 248° |
| 2026-05-01 09:59 | 11.71204 | 114.18060 | 39646 ft | 462 kts | 248° |
| 2026-05-01 10:00 | 11.68640 | 114.12047 | 39663 ft | 462 kts | 248° |
| 2026-05-01 10:00 | 11.66073 | 114.06030 | 39693 ft | 462 kts | 248° |
| 2026-05-01 10:01 | 11.63530 | 114.00053 | 39701 ft | 462 kts | 250° |
| 2026-05-01 10:01 | 11.61213 | 113.93953 | 39711 ft | 462 kts | 250° |
| 2026-05-01 10:02 | 11.58890 | 113.87843 | 39719 ft | 462 kts | 250° |
| 2026-05-01 10:02 | 11.56576 | 113.81725 | 39727 ft | 462 kts | 250° |
| 2026-05-01 10:03 | 11.54254 | 113.75620 | 39741 ft | 462 kts | 251° |
| 2026-05-01 10:03 | 11.51947 | 113.69537 | 39750 ft | 462 kts | 250° |
| 2026-05-01 10:04 | 11.49622 | 113.63427 | 39755 ft | 462 kts | 250° |
| 2026-05-01 10:04 | 11.47297 | 113.57309 | 39765 ft | 462 kts | 250° |
| 2026-05-01 10:05 | 11.44967 | 113.51192 | 39770 ft | 462 kts | 251° |
| 2026-05-01 10:05 | 11.42640 | 113.45077 | 39783 ft | 462 kts | 250° |
| 2026-05-01 10:06 | 11.40310 | 113.38969 | 39784 ft | 462 kts | 250° |
| 2026-05-01 10:06 | 11.37994 | 113.32895 | 39782 ft | 463 kts | 251° |
| 2026-05-01 10:07 | 11.35661 | 113.26783 | 39779 ft | 463 kts | 251° |
| 2026-05-01 10:07 | 11.33318 | 113.20651 | 39782 ft | 463 kts | 251° |
| 2026-05-01 10:08 | 11.30204 | 113.12503 | 39782 ft | 463 kts | 251° |
| 2026-05-01 10:09 | 11.27861 | 113.06380 | 39787 ft | 463 kts | 250° |
| 2026-05-01 10:09 | 11.25516 | 113.00255 | 39786 ft | 464 kts | 251° |
| 2026-05-01 10:10 | 11.23169 | 112.94127 | 39801 ft | 464 kts | 250° |
| 2026-05-01 10:10 | 11.19663 | 112.84984 | 39799 ft | 464 kts | 251° |
| 2026-05-01 10:11 | 11.17298 | 112.78824 | 39805 ft | 464 kts | 250° |
| 2026-05-01 10:11 | 11.14965 | 112.72747 | 39809 ft | 464 kts | 250° |
| 2026-05-01 10:12 | 11.12614 | 112.66632 | 39825 ft | 463 kts | 250° |
| 2026-05-01 10:13 | 11.09092 | 112.57479 | 39844 ft | 462 kts | 250° |
| 2026-05-01 10:13 | 11.06746 | 112.51380 | 39855 ft | 462 kts | 250° |
| 2026-05-01 10:14 | 11.03240 | 112.42279 | 39870 ft | 462 kts | 250° |
| 2026-05-01 10:14 | 11.00895 | 112.36204 | 39871 ft | 462 kts | 250° |
| 2026-05-01 10:15 | 10.98548 | 112.30118 | 39868 ft | 462 kts | 250° |
| 2026-05-01 10:15 | 10.96196 | 112.24029 | 39867 ft | 462 kts | 250° |
| 2026-05-01 10:16 | 10.93846 | 112.17948 | 39875 ft | 462 kts | 250° |
| 2026-05-01 10:17 | 10.90317 | 112.08822 | 39872 ft | 462 kts | 251° |
| 2026-05-01 10:17 | 10.86785 | 111.99698 | 39862 ft | 462 kts | 250° |
| 2026-05-01 10:18 | 10.83261 | 111.90606 | 39868 ft | 462 kts | 250° |
| 2026-05-01 10:19 | 10.80900 | 111.84522 | 39866 ft | 462 kts | 250° |
| 2026-05-01 10:19 | 10.78540 | 111.78434 | 39877 ft | 462 kts | 249° |
| 2026-05-01 10:20 | 10.74996 | 111.69312 | 39881 ft | 463 kts | 249° |
| 2026-05-01 10:20 | 10.72630 | 111.63231 | 39882 ft | 462 kts | 250° |
| 2026-05-01 10:21 | 10.69076 | 111.54096 | 39880 ft | 463 kts | 250° |
| 2026-05-01 10:22 | 10.65520 | 111.44965 | 39879 ft | 463 kts | 250° |
| 2026-05-01 10:23 | 10.61980 | 111.35884 | 39882 ft | 462 kts | 250° |
| 2026-05-01 10:23 | 10.58421 | 111.26764 | 39881 ft | 463 kts | 250° |
| 2026-05-01 10:24 | 10.53669 | 111.14599 | 39877 ft | 463 kts | 250° |
| 2026-05-01 10:25 | 10.48918 | 111.02454 | 39881 ft | 462 kts | 250° |
| 2026-05-01 10:26 | 10.46543 | 110.96385 | 39882 ft | 462 kts | 250° |
| 2026-05-01 10:27 | 10.41784 | 110.84241 | 39882 ft | 462 kts | 249° |
| 2026-05-01 10:28 | 10.38231 | 110.75187 | 39885 ft | 462 kts | 250° |
| 2026-05-01 10:28 | 10.34663 | 110.66100 | 39882 ft | 462 kts | 249° |
| 2026-05-01 10:29 | 10.31090 | 110.57009 | 39883 ft | 461 kts | 249° |
| 2026-05-01 10:30 | 10.26326 | 110.44905 | 39883 ft | 461 kts | 249° |
| 2026-05-01 10:31 | 10.21577 | 110.32851 | 39885 ft | 461 kts | 249° |
| 2026-05-01 10:32 | 10.17996 | 110.23795 | 39885 ft | 461 kts | 249° |
| 2026-05-01 10:33 | 10.13219 | 110.11724 | 39887 ft | 460 kts | 249° |
| 2026-05-01 10:34 | 10.09637 | 110.02678 | 39884 ft | 460 kts | 249° |
| 2026-05-01 10:34 | 10.07248 | 109.96652 | 39886 ft | 460 kts | 249° |
| 2026-05-01 10:35 | 10.03660 | 109.87610 | 39885 ft | 460 kts | 249° |
| 2026-05-01 10:35 | 10.01268 | 109.81586 | 39886 ft | 460 kts | 249° |
| 2026-05-01 10:36 | 9.97695 | 109.72592 | 39885 ft | 460 kts | 249° |
| 2026-05-01 10:37 | 9.95299 | 109.66565 | 39886 ft | 460 kts | 249° |
| 2026-05-01 10:37 | 9.91706 | 109.57536 | 39884 ft | 460 kts | 249° |
| 2026-05-01 10:38 | 9.89310 | 109.51523 | 39882 ft | 460 kts | 249° |
| 2026-05-01 10:38 | 9.86912 | 109.45499 | 39882 ft | 460 kts | 249° |
| 2026-05-01 10:39 | 9.84512 | 109.39482 | 39889 ft | 460 kts | 249° |
| 2026-05-01 10:39 | 9.82112 | 109.33467 | 39886 ft | 460 kts | 249° |
| 2026-05-01 10:40 | 9.79725 | 109.27484 | 39880 ft | 460 kts | 249° |
| 2026-05-01 10:40 | 9.77322 | 109.21471 | 39879 ft | 460 kts | 249° |
| 2026-05-01 10:41 | 9.74922 | 109.15457 | 39881 ft | 460 kts | 248° |
| 2026-05-01 10:42 | 9.71315 | 109.06437 | 39882 ft | 460 kts | 248° |
| 2026-05-01 10:42 | 9.68907 | 109.00423 | 39887 ft | 460 kts | 249° |
| 2026-05-01 10:43 | 9.66518 | 108.94452 | 39878 ft | 460 kts | 249° |
| 2026-05-01 10:43 | 9.64108 | 108.88439 | 39881 ft | 460 kts | 249° |
| 2026-05-01 10:44 | 9.61700 | 108.82428 | 39878 ft | 460 kts | 248° |
| 2026-05-01 10:44 | 9.59293 | 108.76424 | 39879 ft | 460 kts | 248° |
| 2026-05-01 10:45 | 9.56879 | 108.70413 | 39884 ft | 460 kts | 249° |
| 2026-05-01 10:45 | 9.54467 | 108.64398 | 39880 ft | 460 kts | 248° |
| 2026-05-01 10:46 | 9.52063 | 108.58419 | 39881 ft | 460 kts | 249° |
| 2026-05-01 10:46 | 9.49647 | 108.52405 | 39882 ft | 460 kts | 248° |
| 2026-05-01 10:47 | 9.47232 | 108.46402 | 39882 ft | 460 kts | 248° |
| 2026-05-01 10:47 | 9.44823 | 108.40397 | 39872 ft | 460 kts | 248° |
| 2026-05-01 10:48 | 9.42427 | 108.34379 | 39866 ft | 461 kts | 248° |
| 2026-05-01 10:48 | 9.40018 | 108.28361 | 39871 ft | 461 kts | 248° |
| 2026-05-01 10:49 | 9.37614 | 108.22343 | 39870 ft | 461 kts | 248° |
| 2026-05-01 10:49 | 9.35218 | 108.16356 | 39870 ft | 461 kts | 248° |
| 2026-05-01 10:50 | 9.32808 | 108.10333 | 39869 ft | 462 kts | 248° |
| 2026-05-01 10:50 | 9.30393 | 108.04303 | 39863 ft | 462 kts | 248° |
| 2026-05-01 10:51 | 9.27971 | 107.98259 | 39864 ft | 463 kts | 248° |
| 2026-05-01 10:51 | 9.25549 | 107.92220 | 39863 ft | 463 kts | 248° |
| 2026-05-01 10:52 | 9.23141 | 107.86217 | 39866 ft | 463 kts | 248° |
| 2026-05-01 10:52 | 9.20713 | 107.80168 | 39871 ft | 464 kts | 248° |
| 2026-05-01 10:53 | 9.18284 | 107.74121 | 39866 ft | 464 kts | 248° |
| 2026-05-01 10:53 | 9.15852 | 107.68067 | 39875 ft | 464 kts | 248° |
| 2026-05-01 10:54 | 9.13418 | 107.62013 | 39869 ft | 464 kts | 248° |
| 2026-05-01 10:54 | 9.11393 | 107.56980 | 39872 ft | 465 kts | 248° |
| 2026-05-01 10:55 | 9.08954 | 107.50918 | 39874 ft | 465 kts | 248° |
| 2026-05-01 10:55 | 9.06515 | 107.44863 | 39871 ft | 465 kts | 248° |
| 2026-05-01 10:56 | 9.04073 | 107.38800 | 39863 ft | 465 kts | 248° |
| 2026-05-01 10:56 | 9.01629 | 107.32738 | 39865 ft | 465 kts | 248° |
| 2026-05-01 10:57 | 8.99198 | 107.26709 | 39866 ft | 466 kts | 248° |
| 2026-05-01 10:57 | 8.96742 | 107.20624 | 39867 ft | 466 kts | 248° |
| 2026-05-01 10:58 | 8.94289 | 107.14551 | 39869 ft | 466 kts | 248° |
| 2026-05-01 10:58 | 8.91850 | 107.08512 | 39874 ft | 466 kts | 248° |
| 2026-05-01 10:59 | 8.89394 | 107.02435 | 39870 ft | 466 kts | 248° |
| 2026-05-01 10:59 | 8.86935 | 106.96356 | 39863 ft | 467 kts | 248° |
| 2026-05-01 11:00 | 8.84477 | 106.90279 | 39870 ft | 467 kts | 248° |
| 2026-05-01 11:00 | 8.82020 | 106.84211 | 39871 ft | 467 kts | 248° |
| 2026-05-01 11:01 | 8.79556 | 106.78127 | 39867 ft | 467 kts | 248° |
| 2026-05-01 11:01 | 8.77090 | 106.72043 | 39870 ft | 467 kts | 248° |
| 2026-05-01 11:02 | 8.74622 | 106.65956 | 39867 ft | 468 kts | 248° |
| 2026-05-01 11:02 | 8.71841 | 106.60079 | 39860 ft | 468 kts | 240° |
| 2026-05-01 11:03 | 8.68458 | 106.54443 | 39861 ft | 469 kts | 239° |
| 2026-05-01 11:03 | 8.65175 | 106.48745 | 39863 ft | 469 kts | 239° |
| 2026-05-01 11:04 | 8.61836 | 106.43068 | 39860 ft | 470 kts | 239° |
| 2026-05-01 11:04 | 8.58515 | 106.37377 | 39862 ft | 470 kts | 239° |
| 2026-05-01 11:05 | 8.55181 | 106.31683 | 39864 ft | 470 kts | 239° |
| 2026-05-01 11:05 | 8.51853 | 106.25993 | 39861 ft | 471 kts | 240° |
| 2026-05-01 11:06 | 8.48517 | 106.20296 | 39870 ft | 471 kts | 239° |
| 2026-05-01 11:06 | 8.45198 | 106.14630 | 39872 ft | 471 kts | 239° |
| 2026-05-01 11:07 | 8.40185 | 106.06077 | 39865 ft | 471 kts | 239° |
| 2026-05-01 11:07 | 8.36845 | 106.00379 | 39863 ft | 472 kts | 238° |
| 2026-05-01 11:08 | 8.33496 | 105.94672 | 39864 ft | 472 kts | 238° |
| 2026-05-01 11:09 | 8.28474 | 105.86116 | 39879 ft | 473 kts | 238° |
| 2026-05-01 11:09 | 8.25119 | 105.80402 | 39864 ft | 473 kts | 239° |
| 2026-05-01 11:10 | 8.20102 | 105.71863 | 39879 ft | 474 kts | 238° |
| 2026-05-01 11:10 | 8.16716 | 105.66102 | 39880 ft | 474 kts | 238° |
| 2026-05-01 11:11 | 8.13351 | 105.60381 | 39877 ft | 474 kts | 238° |
| 2026-05-01 11:11 | 8.10005 | 105.54693 | 39875 ft | 474 kts | 238° |
| 2026-05-01 11:12 | 8.06635 | 105.48965 | 39859 ft | 475 kts | 238° |
| 2026-05-01 11:12 | 8.03258 | 105.43234 | 39858 ft | 475 kts | 238° |
| 2026-05-01 11:13 | 7.99878 | 105.37493 | 39860 ft | 475 kts | 238° |
| 2026-05-01 11:13 | 7.96502 | 105.31755 | 39856 ft | 476 kts | 238° |
| 2026-05-01 11:14 | 7.93139 | 105.26039 | 39857 ft | 476 kts | 238° |
| 2026-05-01 11:14 | 7.89755 | 105.20291 | 39859 ft | 476 kts | 238° |
| 2026-05-01 11:15 | 7.86370 | 105.14541 | 39860 ft | 477 kts | 238° |
| 2026-05-01 11:15 | 7.82977 | 105.08784 | 39873 ft | 477 kts | 238° |
| 2026-05-01 11:16 | 7.79587 | 105.03030 | 39874 ft | 477 kts | 238° |
| 2026-05-01 11:16 | 7.76187 | 104.97263 | 39876 ft | 477 kts | 238° |
| 2026-05-01 11:17 | 7.72790 | 104.91506 | 39859 ft | 478 kts | 239° |
| 2026-05-01 11:17 | 7.69389 | 104.85741 | 39857 ft | 478 kts | 239° |
| 2026-05-01 11:18 | 7.66008 | 104.80014 | 39875 ft | 479 kts | 239° |
| 2026-05-01 11:18 | 7.62597 | 104.74236 | 39876 ft | 479 kts | 239° |
| 2026-05-01 11:19 | 7.59186 | 104.68462 | 39872 ft | 479 kts | 239° |
| 2026-05-01 11:19 | 7.55773 | 104.62687 | 39878 ft | 480 kts | 238° |
| 2026-05-01 11:20 | 7.52358 | 104.56909 | 39861 ft | 480 kts | 239° |
| 2026-05-01 11:20 | 7.48935 | 104.51122 | 39877 ft | 480 kts | 239° |
| 2026-05-01 11:21 | 7.45513 | 104.45337 | 39876 ft | 481 kts | 239° |
| 2026-05-01 11:21 | 7.42085 | 104.39546 | 39879 ft | 481 kts | 239° |
| 2026-05-01 11:22 | 7.38655 | 104.33752 | 39875 ft | 481 kts | 239° |
| 2026-05-01 11:22 | 7.35224 | 104.27961 | 39862 ft | 482 kts | 239° |
| 2026-05-01 11:23 | 7.31813 | 104.22203 | 39864 ft | 482 kts | 239° |
| 2026-05-01 11:23 | 7.28374 | 104.16401 | 39875 ft | 482 kts | 239° |
| 2026-05-01 11:24 | 7.24935 | 104.10602 | 39859 ft | 482 kts | 239° |
| 2026-05-01 11:25 | 7.19727 | 104.01931 | 39874 ft | 482 kts | 239° |
| 2026-05-01 11:25 | 7.14519 | 103.93236 | 39875 ft | 483 kts | 239° |
| 2026-05-01 11:26 | 7.09328 | 103.84580 | 39858 ft | 483 kts | 239° |
| 2026-05-01 11:27 | 7.05849 | 103.78786 | 39874 ft | 483 kts | 239° |
| 2026-05-01 11:27 | 7.02363 | 103.72978 | 39874 ft | 484 kts | 239° |
| 2026-05-01 11:28 | 6.98883 | 103.67183 | 39865 ft | 484 kts | 238° |
| 2026-05-01 11:28 | 6.95394 | 103.61376 | 39863 ft | 485 kts | 238° |
| 2026-05-01 11:29 | 6.90191 | 103.52646 | 39865 ft | 485 kts | 239° |
| 2026-05-01 11:30 | 6.85019 | 103.43933 | 39866 ft | 486 kts | 239° |
| 2026-05-01 11:30 | 6.81554 | 103.38086 | 39864 ft | 486 kts | 239° |
| 2026-05-01 11:31 | 6.78082 | 103.32246 | 39863 ft | 486 kts | 239° |
| 2026-05-01 11:31 | 6.74605 | 103.26391 | 39863 ft | 487 kts | 239° |
| 2026-05-01 11:32 | 6.71151 | 103.20578 | 39862 ft | 487 kts | 239° |
| 2026-05-01 11:32 | 6.67662 | 103.14709 | 39878 ft | 488 kts | 239° |
| 2026-05-01 11:33 | 6.64176 | 103.08847 | 39867 ft | 488 kts | 239° |
| 2026-05-01 11:33 | 6.60689 | 103.02986 | 39863 ft | 488 kts | 239° |
| 2026-05-01 11:34 | 6.57199 | 102.97121 | 39866 ft | 489 kts | 239° |
| 2026-05-01 11:34 | 6.53706 | 102.91253 | 39867 ft | 489 kts | 239° |
| 2026-05-01 11:35 | 6.50228 | 102.85414 | 39860 ft | 489 kts | 239° |
| 2026-05-01 11:35 | 6.46646 | 102.79594 | 39857 ft | 489 kts | 237° |
| 2026-05-01 11:36 | 6.43056 | 102.73778 | 39872 ft | 489 kts | 238° |
| 2026-05-01 11:36 | 6.39396 | 102.68016 | 39869 ft | 489 kts | 237° |
| 2026-05-01 11:37 | 6.35772 | 102.62238 | 39856 ft | 489 kts | 237° |
| 2026-05-01 11:37 | 6.32125 | 102.56456 | 39860 ft | 489 kts | 237° |
| 2026-05-01 11:38 | 6.28481 | 102.50672 | 39856 ft | 490 kts | 237° |
| 2026-05-01 11:38 | 6.24859 | 102.44922 | 39854 ft | 490 kts | 237° |
| 2026-05-01 11:39 | 6.21211 | 102.39138 | 39859 ft | 490 kts | 237° |
| 2026-05-01 11:39 | 6.17559 | 102.33341 | 39862 ft | 491 kts | 239° |
| 2026-05-01 11:39 | 6.16062 | 102.30271 | 39878 ft | 491 kts | 251° |
| 2026-05-01 11:40 | 6.15226 | 102.26945 | 39885 ft | 490 kts | 263° |
| 2026-05-01 11:40 | 6.15090 | 102.23534 | 39889 ft | 489 kts | 276° |
| 2026-05-01 11:40 | 6.15647 | 102.20209 | 39890 ft | 488 kts | 288° |
| 2026-05-01 11:40 | 6.16881 | 102.17047 | 39881 ft | 486 kts | 300° |
| 2026-05-01 11:41 | 6.18723 | 102.14209 | 39874 ft | 484 kts | 310° |
| 2026-05-01 11:41 | 6.23092 | 102.09072 | 39848 ft | 484 kts | 311° |
| 2026-05-01 11:42 | 6.26547 | 102.04638 | 39850 ft | 485 kts | 306° |
| 2026-05-01 11:42 | 6.29756 | 101.98679 | 39856 ft | 487 kts | 291° |
| 2026-05-01 11:43 | 6.31927 | 101.92215 | 39870 ft | 489 kts | 289° |
| 2026-05-01 11:43 | 6.34513 | 101.85898 | 39860 ft | 488 kts | 294° |
| 2026-05-01 11:44 | 6.38304 | 101.76368 | 39861 ft | 490 kts | 292° |
| 2026-05-01 11:44 | 6.40915 | 101.70034 | 39856 ft | 490 kts | 292° |
| 2026-05-01 11:45 | 6.43439 | 101.63667 | 39856 ft | 490 kts | 292° |
| 2026-05-01 11:45 | 6.46003 | 101.57325 | 39858 ft | 489 kts | 292° |
| 2026-05-01 11:46 | 6.48548 | 101.50967 | 39852 ft | 490 kts | 292° |
| 2026-05-01 11:46 | 6.51084 | 101.44654 | 39853 ft | 490 kts | 292° |
| 2026-05-01 11:47 | 6.53627 | 101.38314 | 39846 ft | 487 kts | 292° |
| 2026-05-01 11:47 | 6.56165 | 101.31984 | 39846 ft | 488 kts | 292° |
| 2026-05-01 11:48 | 6.58704 | 101.25651 | 39849 ft | 488 kts | 292° |
| 2026-05-01 11:48 | 6.61242 | 101.19316 | 39845 ft | 488 kts | 292° |
| 2026-05-01 11:49 | 6.63776 | 101.12990 | 39849 ft | 487 kts | 292° |
| 2026-05-01 11:49 | 6.66310 | 101.06658 | 39849 ft | 488 kts | 292° |
| 2026-05-01 11:50 | 6.68849 | 101.00315 | 39852 ft | 488 kts | 292° |
| 2026-05-01 11:50 | 6.71385 | 100.93974 | 39847 ft | 488 kts | 292° |
| 2026-05-01 11:51 | 6.73910 | 100.87656 | 39849 ft | 485 kts | 292° |
| 2026-05-01 11:51 | 6.76414 | 100.81391 | 39848 ft | 486 kts | 292° |
| 2026-05-01 11:52 | 6.78940 | 100.75070 | 39844 ft | 487 kts | 292° |
| 2026-05-01 11:52 | 6.81463 | 100.68750 | 39844 ft | 485 kts | 292° |
| 2026-05-01 11:53 | 6.83979 | 100.62447 | 39835 ft | 485 kts | 292° |
| 2026-05-01 11:53 | 6.86497 | 100.56137 | 39829 ft | 486 kts | 291° |
| 2026-05-01 11:54 | 6.89019 | 100.49813 | 39826 ft | 487 kts | 291° |
| 2026-05-01 11:54 | 6.91543 | 100.43482 | 39831 ft | 487 kts | 291° |
| 2026-05-01 11:55 | 6.94319 | 100.37266 | 39851 ft | 487 kts | 303° |
| 2026-05-01 11:55 | 6.98457 | 100.31858 | 39830 ft | 487 kts | 311° |
| 2026-05-01 11:56 | 7.02734 | 100.26633 | 39861 ft | 488 kts | 306° |
| 2026-05-01 11:56 | 7.06700 | 100.21099 | 39632 ft | 483 kts | 308° |
| 2026-05-01 11:57 | 7.08772 | 100.18462 | 39239 ft | 479 kts | 308° |
| 2026-05-01 11:57 | 7.10817 | 100.15826 | 38855 ft | 476 kts | 306° |
| 2026-05-01 11:57 | 7.12792 | 100.13162 | 38500 ft | 472 kts | 306° |
| 2026-05-01 11:57 | 7.14750 | 100.10517 | 38071 ft | 469 kts | 307° |
| 2026-05-01 11:58 | 7.16726 | 100.07919 | 37666 ft | 465 kts | 307° |
| 2026-05-01 11:58 | 7.18691 | 100.05345 | 37275 ft | 462 kts | 307° |
| 2026-05-01 11:58 | 7.22544 | 100.00215 | 36598 ft | 455 kts | 307° |
| 2026-05-01 11:59 | 7.24453 | 99.97685 | 36315 ft | 451 kts | 308° |
| 2026-05-01 11:59 | 7.26343 | 99.95188 | 36072 ft | 446 kts | 308° |
| 2026-05-01 11:59 | 7.28208 | 99.92717 | 35854 ft | 440 kts | 308° |
| 2026-05-01 12:00 | 7.31838 | 99.87895 | 35541 ft | 428 kts | 308° |
| 2026-05-01 12:00 | 7.33656 | 99.85488 | 35065 ft | 437 kts | 309° |
| 2026-05-01 12:00 | 7.37542 | 99.80339 | 33829 ft | 486 kts | 309° |
| 2026-05-01 12:01 | 7.39609 | 99.77592 | 33093 ft | 494 kts | 309° |
| 2026-05-01 12:01 | 7.41679 | 99.74841 | 32380 ft | 491 kts | 309° |
| 2026-05-01 12:01 | 7.43748 | 99.72095 | 31656 ft | 495 kts | 309° |
| 2026-05-01 12:01 | 7.45842 | 99.69322 | 30902 ft | 497 kts | 309° |
| 2026-05-01 12:02 | 7.47930 | 99.66546 | 30132 ft | 498 kts | 308° |
| 2026-05-01 12:02 | 7.50050 | 99.63764 | 29287 ft | 501 kts | 309° |
| 2026-05-01 12:02 | 7.52346 | 99.61158 | 28479 ft | 492 kts | 316° |
| 2026-05-01 12:02 | 7.54933 | 99.58970 | 27762 ft | 483 kts | 326° |
| 2026-05-01 12:03 | 7.57809 | 99.57232 | 27100 ft | 481 kts | 335° |
| 2026-05-01 12:03 | 7.60932 | 99.56165 | 26518 ft | 470 kts | 351° |
| 2026-05-01 12:03 | 7.64172 | 99.56075 | 26135 ft | 466 kts | 8° |
| 2026-05-01 12:03 | 7.67302 | 99.56958 | 25321 ft | 476 kts | 30° |
| 2026-05-01 12:04 | 7.68224 | 99.59616 | 22988 ft | 446 kts | 105° |
| 2026-05-01 12:04 | 7.67361 | 99.62138 | 14726 ft | 406 kts | 101° |
| 2026-05-01 12:04 | 7.66153 | 99.64380 | 12227 ft | 299 kts | 124° |
| 2026-05-01 12:04 | 7.65281 | 99.66369 | 12338 ft | 323 kts | 100° |
| 2026-05-01 12:05 | 7.65258 | 99.68679 | 12533 ft | 338 kts | 79° |
| 2026-05-01 12:05 | 7.67766 | 99.72978 | 12937 ft | 382 kts | 43° |
| 2026-05-01 12:05 | 7.69981 | 99.74473 | 12950 ft | 386 kts | 27° |
| 2026-05-01 12:06 | 7.72553 | 99.75272 | 12947 ft | 391 kts | 10° |
| 2026-05-01 12:06 | 7.75280 | 99.75300 | 12957 ft | 395 kts | 354° |
| 2026-05-01 12:06 | 7.77934 | 99.74548 | 12956 ft | 400 kts | 338° |
| 2026-05-01 12:06 | 7.80303 | 99.73068 | 12951 ft | 404 kts | 322° |
| 2026-05-01 12:07 | 7.82204 | 99.70980 | 12817 ft | 404 kts | 306° |
| 2026-05-01 12:07 | 7.83497 | 99.68488 | 12248 ft | 403 kts | 290° |
| 2026-05-01 12:07 | 7.84063 | 99.65740 | 11623 ft | 400 kts | 273° |
| 2026-05-01 12:07 | 7.83880 | 99.62954 | 10998 ft | 397 kts | 260° |
| 2026-05-01 12:08 | 7.83286 | 99.60244 | 10398 ft | 393 kts | 255° |
| 2026-05-01 12:08 | 7.82558 | 99.57609 | 10075 ft | 390 kts | 253° |
| 2026-05-01 12:08 | 7.81775 | 99.54973 | 10027 ft | 393 kts | 252° |
| 2026-05-01 12:08 | 7.80976 | 99.52338 | 10027 ft | 394 kts | 252° |
| 2026-05-01 12:09 | 7.80179 | 99.49733 | 10022 ft | 394 kts | 252° |
| 2026-05-01 12:09 | 7.79374 | 99.47092 | 10027 ft | 394 kts | 253° |
| 2026-05-01 12:09 | 7.78679 | 99.44419 | 10026 ft | 395 kts | 257° |
| 2026-05-01 12:09 | 7.78216 | 99.41685 | 10027 ft | 396 kts | 263° |
| 2026-05-01 12:10 | 7.78035 | 99.38910 | 10023 ft | 396 kts | 269° |
| 2026-05-01 12:10 | 7.78586 | 99.33397 | 10029 ft | 395 kts | 283° |
| 2026-05-01 12:10 | 7.79400 | 99.30756 | 10026 ft | 395 kts | 294° |
| 2026-05-01 12:11 | 7.81629 | 99.26760 | 10032 ft | 392 kts | 303° |
| 2026-05-01 12:11 | 7.83063 | 99.24420 | 10027 ft | 394 kts | 301° |
| 2026-05-01 12:11 | 7.84342 | 99.21973 | 10027 ft | 394 kts | 297° |
| 2026-05-01 12:12 | 7.85539 | 99.19485 | 10029 ft | 395 kts | 297° |
| 2026-05-01 12:12 | 7.86799 | 99.17032 | 10026 ft | 395 kts | 299° |
| 2026-05-01 12:12 | 7.88106 | 99.14610 | 10030 ft | 394 kts | 300° |
| 2026-05-01 12:12 | 7.89392 | 99.12173 | 10027 ft | 394 kts | 298° |
| 2026-05-01 12:13 | 7.90659 | 99.09706 | 10027 ft | 394 kts | 298° |
| 2026-05-01 12:13 | 7.91921 | 99.07265 | 10027 ft | 393 kts | 298° |
| 2026-05-01 12:13 | 7.93198 | 99.04823 | 9944 ft | 389 kts | 299° |
| 2026-05-01 12:13 | 7.94458 | 99.02413 | 9494 ft | 382 kts | 299° |
| 2026-05-01 12:14 | 7.95670 | 99.00083 | 9257 ft | 369 kts | 299° |
| 2026-05-01 12:14 | 7.96841 | 98.97829 | 9084 ft | 355 kts | 299° |
| 2026-05-01 12:14 | 7.97969 | 98.95663 | 8975 ft | 341 kts | 299° |
| 2026-05-01 12:14 | 7.99025 | 98.93633 | 8716 ft | 313 kts | 299° |
| 2026-05-01 12:15 | 8.00001 | 98.91756 | 8360 ft | 292 kts | 299° |
| 2026-05-01 12:15 | 8.00920 | 98.89992 | 8046 ft | 275 kts | 299° |
| 2026-05-01 12:15 | 8.01784 | 98.88331 | 7822 ft | 259 kts | 299° |
| 2026-05-01 12:15 | 8.02594 | 98.86774 | 7626 ft | 244 kts | 299° |
| 2026-05-01 12:16 | 8.03376 | 98.85273 | 7242 ft | 241 kts | 299° |
| 2026-05-01 12:16 | 8.04146 | 98.83792 | 6830 ft | 241 kts | 300° |
| 2026-05-01 12:16 | 8.04923 | 98.82297 | 6452 ft | 239 kts | 300° |
| 2026-05-01 12:16 | 8.05694 | 98.80816 | 6079 ft | 236 kts | 300° |
| 2026-05-01 12:17 | 8.06439 | 98.79382 | 6020 ft | 231 kts | 300° |
| 2026-05-01 12:17 | 8.07187 | 98.77944 | 6018 ft | 231 kts | 300° |
| 2026-05-01 12:17 | 8.07928 | 98.76518 | 6025 ft | 222 kts | 300° |
| 2026-05-01 12:17 | 8.08617 | 98.75189 | 5963 ft | 212 kts | 300° |
| 2026-05-01 12:18 | 8.09298 | 98.73882 | 5715 ft | 208 kts | 300° |
| 2026-05-01 12:18 | 8.09973 | 98.72583 | 5466 ft | 207 kts | 300° |
| 2026-05-01 12:18 | 8.10639 | 98.71296 | 5371 ft | 208 kts | 301° |
| 2026-05-01 12:18 | 8.11316 | 98.69998 | 5288 ft | 210 kts | 301° |
| 2026-05-01 12:19 | 8.11996 | 98.68691 | 5190 ft | 210 kts | 301° |
| 2026-05-01 12:19 | 8.12641 | 98.67371 | 5081 ft | 211 kts | 291° |
| 2026-05-01 12:19 | 8.13037 | 98.65946 | 4986 ft | 211 kts | 290° |
| 2026-05-01 12:19 | 8.13427 | 98.64543 | 4811 ft | 211 kts | 286° |
| 2026-05-01 12:20 | 8.13565 | 98.63058 | 4526 ft | 215 kts | 267° |
| 2026-05-01 12:20 | 8.13464 | 98.61561 | 4269 ft | 213 kts | 267° |
| 2026-05-01 12:20 | 8.13361 | 98.60072 | 4018 ft | 212 kts | 267° |
| 2026-05-01 12:20 | 8.13259 | 98.58588 | 3767 ft | 211 kts | 267° |
| 2026-05-01 12:21 | 8.13157 | 98.57115 | 3516 ft | 210 kts | 266° |
| 2026-05-01 12:21 | 8.13056 | 98.55649 | 3164 ft | 209 kts | 266° |
| 2026-05-01 12:21 | 8.12957 | 98.54205 | 2748 ft | 203 kts | 266° |
| 2026-05-01 12:21 | 8.12862 | 98.52814 | 2509 ft | 194 kts | 265° |
| 2026-05-01 12:22 | 8.12766 | 98.51431 | 2515 ft | 198 kts | 266° |
| 2026-05-01 12:22 | 8.12675 | 98.50105 | 2500 ft | 180 kts | 265° |
| 2026-05-01 12:22 | 8.12589 | 98.48843 | 2510 ft | 183 kts | 265° |
| 2026-05-01 12:22 | 8.12503 | 98.47607 | 2453 ft | 173 kts | 266° |
| 2026-05-01 12:23 | 8.12420 | 98.46383 | 2070 ft | 172 kts | 265° |
| 2026-05-01 12:23 | 8.12340 | 98.45225 | 2008 ft | 160 kts | 264° |
| 2026-05-01 12:23 | 8.12266 | 98.44103 | 2011 ft | 156 kts | 264° |
| 2026-05-01 12:23 | 8.12195 | 98.43043 | 2035 ft | 151 kts | 263° |
| 2026-05-01 12:24 | 8.12119 | 98.41979 | 1865 ft | 151 kts | 264° |
| 2026-05-01 12:24 | 8.12052 | 98.40946 | 1644 ft | 144 kts | 263° |
| 2026-05-01 12:24 | 8.12022 | 98.40533 | 1559 ft | 140 kts | 263° |
| 2026-05-01 12:25 | 8.12004 | 98.40238 | 1495 ft | 138 kts | 263° |
| 2026-05-01 12:25 | 8.11862 | 98.38316 | 1126 ft | 136 kts | 262° |
| 2026-05-01 12:25 | 8.11783 | 98.37354 | 930 ft | 137 kts | 264° |
| 2026-05-01 12:26 | 8.11735 | 98.36408 | 699 ft | 133 kts | 265° |
| 2026-05-01 12:26 | 8.11603 | 98.34513 | 484 ft | 133 kts | 261° |
| 2026-05-01 12:26 | 8.11493 | 98.33612 | 240 ft | 127 kts | 264° |
| 2026-05-01 12:27 | 8.11418 | 98.32756 | 99 ft | 115 kts | 262° |
| 2026-05-01 12:27 | 8.11331 | 98.31781 | 59 ft | 49 kts | 264° |
| 2026-05-01 12:28 | 8.11256 | 98.30991 | 39 ft | 50 kts | 264° |
| 2026-05-01 12:28 | 8.11235 | 98.30733 | 38 ft | 17 kts | 263° |
| 2026-05-01 12:28 | 8.11190 | 98.30544 | 37 ft | 10 kts | 219° |
| 2026-05-01 12:29 | 8.11137 | 98.30518 | 37 ft | 8 kts | 198° |
| 2026-05-01 12:29 | 8.11081 | 98.30495 | 37 ft | 9 kts | 214° |
| 2026-05-01 12:29 | 8.10983 | 98.30406 | 37 ft | 9 kts | 208° |
| 2026-05-01 12:30 | 8.10848 | 98.30363 | 37 ft | 12 kts | 196° |
| 2026-05-01 12:30 | 8.10764 | 98.30342 | 36 ft | 12 kts | 195° |
| 2026-05-01 12:30 | 8.10736 | 98.30320 | 36 ft | 4 kts | 241° |
| 2026-05-01 12:31 | 8.10727 | 98.30296 | 36 ft | 0 kts | 254° |
| 2026-05-01 12:31 | 8.10725 | 98.30289 | 36 ft | 1 kts | 247° |
| 2026-05-01 12:31 | 8.10718 | 98.30268 | 36 ft | 3 kts | 262° |
| 2026-05-01 12:31 | 8.10718 | 98.30257 | 36 ft | 0 kts | 276° |